createdAt,value
2019-04-28T00:00:23.300Z,77.26
2019-04-28T00:01:23.212Z,76.94
2019-04-28T00:02:23.141Z,77.80
2019-04-28T00:03:23.095Z,77.61
2019-04-28T00:04:23.043Z,77.65
2019-04-28T00:05:22.948Z,77.90
2019-04-28T00:06:22.873Z,77.36
2019-04-28T00:07:22.795Z,77.17
2019-04-28T00:08:22.722Z,77.55
2019-04-28T00:09:23.166Z,77.84
2019-04-28T00:10:22.597Z,77.75
2019-04-28T00:11:22.535Z,77.84
2019-04-28T00:12:22.944Z,78.19
2019-04-28T00:13:22.370Z,78.28
2019-04-28T00:14:22.300Z,78.38
2019-04-28T00:15:22.234Z,78.38
2019-04-28T00:16:22.878Z,78.28
2019-04-28T00:17:22.111Z,78.57
2019-04-28T00:18:22.119Z,78.28
2019-04-28T00:19:21.969Z,78.57
2019-04-28T00:20:21.895Z,77.65
2019-04-28T00:21:21.812Z,77.84
2019-04-28T00:22:21.745Z,77.75
2019-04-28T00:23:21.732Z,77.36
2019-04-28T00:24:23.081Z,77.36
2019-04-28T00:25:21.570Z,77.26
2019-04-28T00:26:21.460Z,76.79
2019-04-28T00:27:21.697Z,76.69
2019-04-28T00:28:21.324Z,76.89
2019-04-28T00:29:21.267Z,76.79
2019-04-28T00:30:21.769Z,77.17
2019-04-28T00:31:21.313Z,76.98
2019-04-28T00:32:21.152Z,77.36
2019-04-28T00:33:22.630Z,77.46
2019-04-28T00:34:21.334Z,77.55
2019-04-28T00:35:21.743Z,77.61
2019-04-28T00:36:21.611Z,77.70
2019-04-28T00:37:21.170Z,77.65
2019-04-28T00:38:21.595Z,77.70
2019-04-28T00:39:21.038Z,77.75
2019-04-28T00:40:21.763Z,77.84
2019-04-28T00:41:21.390Z,77.70
2019-04-28T00:42:22.519Z,77.99
2019-04-28T00:43:21.778Z,78.47
2019-04-28T00:44:21.800Z,78.66
2019-04-28T00:45:21.521Z,78.66
2019-04-28T00:46:21.113Z,78.76
2019-04-28T00:47:21.080Z,78.42
2019-04-28T00:48:20.950Z,78.32
2019-04-28T00:49:21.478Z,78.32
2019-04-28T00:50:21.625Z,78.42
2019-04-28T00:51:21.305Z,78.42
2019-04-28T00:52:19.650Z,78.42
2019-04-28T00:53:20.659Z,78.42
2019-04-28T00:54:19.515Z,78.13
2019-04-28T00:55:20.978Z,78.13
2019-04-28T00:56:19.399Z,78.13
2019-04-28T00:57:21.024Z,78.13
2019-04-28T00:58:20.865Z,78.22
2019-04-28T00:59:19.179Z,78.89
2019-04-28T01:00:19.107Z,79.14
2019-04-28T01:01:19.018Z,79.81
2019-04-28T01:02:18.947Z,80.29
2019-04-28T01:03:18.880Z,79.91
2019-04-28T01:04:18.810Z,79.91
2019-04-28T01:05:18.751Z,80.00
2019-04-28T01:06:18.695Z,80.19
2019-04-28T01:07:18.617Z,80.10
2019-04-28T01:08:18.538Z,80.29
2019-04-28T01:09:18.459Z,80.19
2019-04-28T01:10:18.390Z,79.91
2019-04-28T01:11:18.332Z,79.52
2019-04-28T01:12:18.262Z,80.29
2019-04-28T01:13:18.180Z,80.00
2019-04-28T01:14:18.110Z,80.19
2019-04-28T01:15:20.084Z,80.19
2019-04-28T01:16:19.411Z,80.73
2019-04-28T01:17:19.726Z,81.21
2019-04-28T01:18:17.836Z,80.82
2019-04-28T01:19:17.771Z,80.73
2019-04-28T01:20:19.557Z,80.92
2019-04-28T01:21:17.618Z,80.63
2019-04-28T01:22:17.552Z,80.63
2019-04-28T01:23:17.473Z,80.73
2019-04-28T01:24:17.404Z,80.73
2019-04-28T01:25:17.346Z,80.82
2019-04-28T01:26:17.289Z,80.82
2019-04-28T01:27:17.196Z,80.63
2019-04-28T01:28:17.126Z,81.21
2019-04-28T01:29:17.065Z,80.44
2019-04-28T01:30:17.001Z,80.73
2019-04-28T01:31:16.932Z,81.15
2019-04-28T01:32:16.857Z,80.82
2019-04-28T01:33:16.778Z,81.02
2019-04-28T01:34:16.706Z,82.26
2019-04-28T01:35:16.632Z,82.35
2019-04-28T01:36:16.567Z,82.35
2019-04-28T01:37:16.503Z,82.35
2019-04-28T01:38:16.446Z,82.54
2019-04-28T01:39:16.367Z,82.17
2019-04-28T01:40:16.291Z,81.59
2019-04-28T01:41:16.210Z,81.88
2019-04-28T01:42:16.142Z,81.88
2019-04-28T01:43:16.086Z,81.59
2019-04-28T01:44:16.010Z,81.59
2019-04-28T01:45:15.930Z,81.40
2019-04-28T01:46:15.858Z,81.40
2019-04-28T01:47:15.810Z,81.68
2019-04-28T01:48:15.721Z,81.11
2019-04-28T01:49:15.663Z,81.30
2019-04-28T01:50:15.591Z,80.67
2019-04-28T01:51:15.510Z,80.87
2019-04-28T01:52:15.437Z,81.05
2019-04-28T01:53:15.379Z,80.96
2019-04-28T01:54:15.311Z,80.96
2019-04-28T01:55:15.248Z,80.67
2019-04-28T01:56:15.167Z,81.25
2019-04-28T01:57:15.088Z,81.05
2019-04-28T01:58:15.019Z,80.87
2019-04-28T01:59:14.957Z,80.87
2019-04-28T02:00:23.043Z,81.15
2019-04-28T02:01:14.808Z,80.96
2019-04-28T02:02:14.738Z,81.49
2019-04-28T02:03:14.704Z,81.78
2019-04-28T02:04:14.592Z,82.03
2019-04-28T02:05:14.546Z,83.27
2019-04-28T02:06:14.466Z,83.27
2019-04-28T02:07:14.393Z,83.56
2019-04-28T02:08:14.326Z,83.56
2019-04-28T02:09:14.273Z,83.56
2019-04-28T02:10:14.173Z,83.75
2019-04-28T02:11:14.111Z,83.56
2019-04-28T02:12:14.034Z,83.65
2019-04-28T02:13:13.971Z,83.56
2019-04-28T02:14:13.909Z,84.13
2019-04-28T02:15:13.819Z,83.84
2019-04-28T02:16:13.750Z,83.56
2019-04-28T02:17:13.693Z,83.17
2019-04-28T02:18:13.622Z,83.37
2019-04-28T02:19:13.555Z,82.98
2019-04-28T02:20:13.480Z,83.17
2019-04-28T02:21:13.394Z,83.22
2019-04-28T02:22:13.324Z,83.31
2019-04-28T02:23:13.270Z,83.50
2019-04-28T02:24:13.195Z,82.93
2019-04-28T02:25:13.116Z,82.17
2019-04-28T02:26:13.046Z,82.45
2019-04-28T02:27:12.978Z,82.93
2019-04-28T02:28:12.902Z,83.17
2019-04-28T02:29:12.847Z,83.08
2019-04-28T02:30:12.781Z,83.37
2019-04-28T02:31:12.717Z,83.08
2019-04-28T02:32:12.636Z,83.08
2019-04-28T02:33:12.561Z,83.22
2019-04-28T02:34:12.499Z,83.22
2019-04-28T02:35:12.436Z,82.83
2019-04-28T02:36:12.505Z,82.45
2019-04-28T02:37:12.271Z,82.74
2019-04-28T02:38:12.205Z,82.54
2019-04-28T02:39:12.129Z,82.54
2019-04-28T02:40:12.060Z,82.35
2019-04-28T02:41:12.003Z,82.35
2019-04-28T02:42:11.934Z,82.35
2019-04-28T02:43:11.859Z,81.97
2019-04-28T02:44:11.785Z,81.97
2019-04-28T02:45:12.015Z,82.07
2019-04-28T02:46:11.637Z,81.78
2019-04-28T02:47:11.582Z,81.88
2019-04-28T02:48:11.507Z,81.68
2019-04-28T02:49:11.425Z,81.88
2019-04-28T02:50:11.538Z,81.68
2019-04-28T02:51:11.291Z,81.78
2019-04-28T02:52:11.212Z,81.97
2019-04-28T02:53:11.271Z,81.97
2019-04-28T02:54:11.086Z,82.07
2019-04-28T02:55:11.364Z,81.97
2019-04-28T02:56:11.357Z,81.97
2019-04-28T02:57:11.143Z,82.35
2019-04-28T02:58:13.331Z,82.45
2019-04-28T02:59:11.081Z,82.07
2019-04-28T03:00:10.659Z,82.45
2019-04-28T03:01:21.357Z,82.17
2019-04-28T03:02:10.782Z,82.35
2019-04-28T03:03:11.000Z,82.35
2019-04-28T03:04:12.394Z,82.45
2019-04-28T03:05:11.656Z,82.17
2019-04-28T03:06:10.796Z,82.07
2019-04-28T03:07:11.496Z,82.64
2019-04-28T03:08:11.175Z,82.64
2019-04-28T03:09:10.638Z,82.83
2019-04-28T03:10:11.077Z,82.35
2019-04-28T03:11:10.664Z,82.12
2019-04-28T03:12:11.358Z,82.51
2019-04-28T03:13:10.801Z,82.51
2019-04-28T03:14:11.091Z,82.64
2019-04-28T03:15:10.399Z,82.79
2019-04-28T03:16:10.810Z,82.45
2019-04-28T03:17:10.983Z,82.60
2019-04-28T03:18:11.451Z,82.31
2019-04-28T03:19:10.945Z,82.41
2019-04-28T03:20:10.933Z,82.60
2019-04-28T03:21:11.484Z,83.17
2019-04-28T03:22:11.486Z,83.08
2019-04-28T03:23:12.110Z,82.51
2019-04-28T03:24:11.006Z,82.41
2019-04-28T03:25:10.939Z,82.60
2019-04-28T03:26:10.974Z,83.17
2019-04-28T03:27:10.782Z,83.27
2019-04-28T03:28:11.797Z,83.37
2019-04-28T03:29:10.880Z,82.98
2019-04-28T03:30:12.731Z,83.08
2019-04-28T03:31:36.791Z,83.37
2019-04-28T03:32:28.480Z,83.08
2019-04-28T03:33:17.071Z,83.17
2019-04-28T03:34:12.514Z,83.08
2019-04-28T03:35:12.448Z,83.56
2019-04-28T03:36:10.277Z,83.27
2019-04-28T03:37:08.039Z,83.27
2019-04-28T03:38:07.976Z,83.37
2019-04-28T03:39:10.852Z,83.46
2019-04-28T03:40:07.825Z,83.08
2019-04-28T03:41:07.769Z,83.94
2019-04-28T03:42:07.693Z,83.70
2019-04-28T03:43:07.621Z,84.47
2019-04-28T03:44:07.554Z,84.19
2019-04-28T03:45:07.471Z,84.76
2019-04-28T03:46:07.394Z,84.47
2019-04-28T03:47:07.332Z,84.47
2019-04-28T03:48:07.255Z,84.47
2019-04-28T03:49:07.199Z,84.38
2019-04-28T03:50:07.123Z,84.47
2019-04-28T03:51:07.047Z,84.66
2019-04-28T03:52:07.024Z,83.99
2019-04-28T03:53:06.924Z,84.28
2019-04-28T03:54:06.840Z,84.47
2019-04-28T03:55:06.766Z,84.28
2019-04-28T03:56:06.695Z,84.66
2019-04-28T03:57:06.616Z,84.47
2019-04-28T03:58:06.549Z,84.28
2019-04-28T03:59:06.487Z,84.38
2019-04-28T04:00:06.421Z,84.09
2019-04-28T04:01:07.150Z,84.38
2019-04-28T04:02:06.260Z,84.28
2019-04-28T04:03:06.188Z,84.95
2019-04-28T04:04:06.124Z,84.91
2019-04-28T04:05:06.055Z,84.81
2019-04-28T04:06:05.977Z,84.76
2019-04-28T04:07:05.925Z,85.24
2019-04-28T04:08:05.846Z,85.14
2019-04-28T04:09:05.760Z,85.10
2019-04-28T04:10:05.687Z,85.29
2019-04-28T04:11:05.622Z,85.14
2019-04-28T04:12:05.551Z,84.76
2019-04-28T04:13:05.489Z,85.42
2019-04-28T04:14:05.418Z,84.38
2019-04-28T04:15:05.339Z,84.66
2019-04-28T04:16:05.264Z,84.95
2019-04-28T04:17:05.202Z,84.56
2019-04-28T04:18:05.132Z,84.38
2019-04-28T04:19:05.057Z,84.19
2019-04-28T04:20:04.984Z,84.19
2019-04-28T04:21:04.907Z,84.19
2019-04-28T04:22:04.840Z,84.47
2019-04-28T04:23:04.780Z,84.09
2019-04-28T04:24:04.699Z,84.19
2019-04-28T04:25:04.659Z,83.90
2019-04-28T04:26:04.560Z,83.70
2019-04-28T04:27:04.490Z,83.65
2019-04-28T04:28:04.409Z,83.23
2019-04-28T04:29:04.354Z,83.33
2019-04-28T04:30:04.303Z,83.33
2019-04-28T04:31:04.189Z,83.70
2019-04-28T04:32:15.715Z,83.61
2019-04-28T04:33:04.058Z,83.90
2019-04-28T04:34:03.995Z,84.19
2019-04-28T04:35:03.921Z,84.09
2019-04-28T04:36:03.857Z,83.70
2019-04-28T04:37:03.764Z,83.90
2019-04-28T04:38:03.718Z,83.99
2019-04-28T04:39:03.623Z,83.99
2019-04-28T04:40:03.557Z,83.80
2019-04-28T04:41:03.486Z,83.99
2019-04-28T04:42:03.419Z,84.09
2019-04-28T04:43:03.346Z,84.09
2019-04-28T04:44:03.278Z,83.90
2019-04-28T04:45:03.204Z,83.99
2019-04-28T04:46:03.123Z,84.66
2019-04-28T04:47:03.069Z,84.33
2019-04-28T04:48:03.007Z,84.43
2019-04-28T04:49:02.907Z,84.76
2019-04-28T04:50:02.846Z,84.43
2019-04-28T04:51:02.764Z,84.43
2019-04-28T04:52:02.697Z,85.10
2019-04-28T04:53:02.947Z,85.10
2019-04-28T04:54:02.562Z,85.19
2019-04-28T04:55:02.482Z,85.10
2019-04-28T04:56:02.406Z,84.52
2019-04-28T04:57:02.377Z,85.19
2019-04-28T04:58:02.276Z,84.72
2019-04-28T04:59:02.943Z,85.10
2019-04-28T05:00:02.133Z,85.19
2019-04-28T05:01:02.049Z,85.00
2019-04-28T05:02:02.438Z,85.48
2019-04-28T05:03:01.919Z,85.19
2019-04-28T05:04:01.843Z,84.91
2019-04-28T05:05:01.770Z,84.52
2019-04-28T05:06:01.693Z,85.00
2019-04-28T05:07:01.622Z,85.00
2019-04-28T05:08:01.568Z,84.91
2019-04-28T05:09:01.485Z,85.19
2019-04-28T05:10:01.420Z,84.62
2019-04-28T05:11:01.347Z,84.81
2019-04-28T05:12:01.270Z,84.14
2019-04-28T05:13:01.191Z,84.62
2019-04-28T05:14:01.121Z,84.62
2019-04-28T05:15:01.052Z,84.91
2019-04-28T05:16:00.979Z,84.91
2019-04-28T05:17:00.988Z,84.91
2019-04-28T05:18:00.849Z,84.62
2019-04-28T05:19:00.759Z,85.19
2019-04-28T05:20:01.462Z,85.29
2019-04-28T05:21:00.628Z,85.15
2019-04-28T05:22:00.562Z,85.05
2019-04-28T05:23:00.721Z,85.25
2019-04-28T05:24:00.416Z,85.00
2019-04-28T05:25:00.344Z,84.81
2019-04-28T05:26:01.546Z,84.72
2019-04-28T05:27:00.200Z,85.10
2019-04-28T05:28:02.912Z,84.52
2019-04-28T05:29:00.049Z,84.62
2019-04-28T05:30:03.790Z,84.14
2019-04-28T05:31:00.115Z,84.72
2019-04-28T05:32:03.351Z,84.81
2019-04-28T05:33:00.363Z,83.95
2019-04-28T05:34:00.107Z,83.57
2019-04-28T05:35:00.149Z,84.09
2019-04-28T05:36:02.965Z,83.86
2019-04-28T05:37:00.699Z,84.05
2019-04-28T05:37:59.868Z,83.95
2019-04-28T05:39:00.182Z,84.43
2019-04-28T05:40:00.813Z,84.52
2019-04-28T05:41:00.306Z,84.72
2019-04-28T05:42:00.803Z,84.72
2019-04-28T05:43:00.906Z,84.72
2019-04-28T05:43:59.589Z,84.09
2019-04-28T05:44:59.961Z,83.70
2019-04-28T05:46:00.308Z,83.90
2019-04-28T05:46:59.571Z,83.57
2019-04-28T05:47:59.457Z,83.80
2019-04-28T05:48:59.997Z,83.80
2019-04-28T05:50:00.216Z,83.42
2019-04-28T05:50:59.915Z,83.51
2019-04-28T05:51:58.412Z,83.23
2019-04-28T05:52:58.324Z,83.23
2019-04-28T05:53:59.509Z,82.46
2019-04-28T05:54:59.820Z,82.46
2019-04-28T05:55:59.945Z,83.04
2019-04-28T05:56:59.732Z,83.42
2019-04-28T05:57:59.853Z,83.42
2019-04-28T05:58:57.909Z,83.42
2019-04-28T06:00:01.039Z,83.61
2019-04-28T06:00:57.761Z,83.23
2019-04-28T06:01:57.679Z,83.70
2019-04-28T06:02:57.606Z,83.38
2019-04-28T06:03:57.537Z,84.05
2019-04-28T06:04:57.483Z,83.86
2019-04-28T06:05:57.415Z,84.19
2019-04-28T06:06:57.325Z,84.05
2019-04-28T06:07:57.261Z,83.99
2019-04-28T06:08:57.194Z,83.42
2019-04-28T06:09:57.124Z,83.61
2019-04-28T06:10:57.048Z,83.23
2019-04-28T06:11:56.983Z,82.56
2019-04-28T06:12:56.908Z,82.56
2019-04-28T06:13:56.829Z,82.75
2019-04-28T06:14:56.759Z,82.75
2019-04-28T06:15:56.683Z,82.46
2019-04-28T06:16:56.624Z,82.37
2019-04-28T06:17:56.558Z,82.51
2019-04-28T06:18:56.484Z,82.18
2019-04-28T06:19:56.419Z,82.12
2019-04-28T06:20:56.338Z,82.31
2019-04-28T06:21:56.257Z,81.93
2019-04-28T06:22:56.268Z,81.74
2019-04-28T06:23:56.130Z,81.74
2019-04-28T06:24:56.049Z,81.36
2019-04-28T06:25:55.987Z,81.45
2019-04-28T06:26:55.902Z,81.55
2019-04-28T06:27:55.835Z,81.45
2019-04-28T06:28:55.783Z,81.93
2019-04-28T06:29:55.718Z,82.12
2019-04-28T06:30:55.630Z,81.55
2019-04-28T06:31:55.552Z,81.36
2019-04-28T06:33:07.160Z,81.74
2019-04-28T06:33:55.428Z,81.74
2019-04-28T06:34:55.373Z,81.26
2019-04-28T06:35:55.311Z,80.79
2019-04-28T06:36:55.202Z,80.98
2019-04-28T06:37:55.136Z,80.59
2019-04-28T06:38:55.073Z,80.44
2019-04-28T06:39:55.003Z,80.44
2019-04-28T06:40:54.919Z,80.59
2019-04-28T06:41:54.853Z,80.54
2019-04-28T06:42:54.781Z,80.44
2019-04-28T06:43:54.709Z,80.40
2019-04-28T06:44:54.655Z,80.79
2019-04-28T06:45:54.585Z,80.69
2019-04-28T06:46:54.512Z,80.59
2019-04-28T06:47:54.443Z,80.54
2019-04-28T06:48:54.379Z,80.16
2019-04-28T06:49:54.315Z,80.16
2019-04-28T06:50:54.223Z,79.87
2019-04-28T06:51:54.153Z,79.87
2019-04-28T06:52:54.094Z,80.25
2019-04-28T06:53:54.027Z,79.58
2019-04-28T06:54:53.945Z,79.58
2019-04-28T06:55:53.877Z,79.49
2019-04-28T06:56:53.817Z,79.00
2019-04-28T06:57:53.752Z,78.66
2019-04-28T06:58:59.336Z,78.38
2019-04-28T06:59:53.617Z,78.19
2019-04-28T07:00:53.523Z,78.28
2019-04-28T07:01:53.458Z,78.47
2019-04-28T07:02:53.385Z,78.19
2019-04-28T07:03:53.323Z,77.70
2019-04-28T07:05:01.567Z,77.80
2019-04-28T07:05:53.187Z,78.19
2019-04-28T07:06:53.122Z,78.09
2019-04-28T07:07:53.083Z,77.51
2019-04-28T07:08:52.971Z,77.08
2019-04-28T07:09:52.905Z,77.42
2019-04-28T07:10:52.849Z,77.17
2019-04-28T07:11:52.785Z,77.51
2019-04-28T07:12:52.696Z,77.42
2019-04-28T07:13:52.629Z,77.61
2019-04-28T07:14:52.563Z,78.09
2019-04-28T07:15:52.490Z,79.10
2019-04-28T07:16:52.442Z,79.39
2019-04-28T07:17:52.360Z,79.39
2019-04-28T07:18:52.305Z,79.24
2019-04-28T07:19:52.230Z,78.86
2019-04-28T07:20:52.153Z,78.38
2019-04-28T07:21:52.076Z,77.90
2019-04-28T07:22:52.017Z,77.90
2019-04-28T07:23:51.935Z,77.65
2019-04-28T07:24:51.885Z,77.17
2019-04-28T07:25:51.820Z,76.50
2019-04-28T07:26:51.730Z,76.69
2019-04-28T07:27:51.659Z,76.60
2019-04-28T07:28:51.634Z,76.69
2019-04-28T07:29:51.538Z,76.21
2019-04-28T07:30:51.475Z,76.02
2019-04-28T07:31:51.399Z,76.50
2019-04-28T07:32:51.321Z,76.31
2019-04-28T07:33:51.288Z,76.12
2019-04-28T07:34:51.190Z,76.69
2019-04-28T07:35:51.126Z,76.02
2019-04-28T07:36:51.044Z,75.93
2019-04-28T07:37:50.993Z,75.68
2019-04-28T07:38:50.907Z,74.91
2019-04-28T07:39:50.841Z,75.73
2019-04-28T07:40:50.790Z,76.12
2019-04-28T07:41:50.719Z,76.21
2019-04-28T07:42:50.638Z,76.21
2019-04-28T07:43:50.569Z,76.50
2019-04-28T07:44:50.511Z,76.31
2019-04-28T07:45:50.443Z,76.50
2019-04-28T07:46:50.375Z,75.73
2019-04-28T07:47:50.300Z,75.87
2019-04-28T07:48:52.434Z,75.10
2019-04-28T07:49:50.152Z,74.33
2019-04-28T07:50:50.093Z,73.95
2019-04-28T07:51:50.023Z,74.05
2019-04-28T07:52:49.974Z,73.95
2019-04-28T07:53:49.897Z,74.15
2019-04-28T07:54:49.836Z,74.05
2019-04-28T07:55:49.763Z,73.95
2019-04-28T07:56:49.729Z,74.01
2019-04-28T07:57:49.612Z,75.07
2019-04-28T07:58:49.556Z,75.16
2019-04-28T07:59:49.492Z,74.87
2019-04-28T08:00:49.408Z,74.52
2019-04-28T08:01:49.343Z,74.33
2019-04-28T08:02:49.279Z,74.33
2019-04-28T08:03:50.099Z,74.05
2019-04-28T08:04:49.144Z,73.82
2019-04-28T08:05:49.077Z,74.87
2019-04-28T08:06:49.024Z,74.49
2019-04-28T08:07:48.943Z,75.07
2019-04-28T08:08:48.907Z,74.77
2019-04-28T08:09:48.797Z,74.87
2019-04-28T08:10:48.736Z,74.82
2019-04-28T08:11:48.668Z,74.43
2019-04-28T08:12:49.221Z,74.24
2019-04-28T08:13:48.531Z,74.15
2019-04-28T08:14:48.460Z,73.80
2019-04-28T08:15:48.387Z,73.03
2019-04-28T08:16:48.334Z,72.55
2019-04-28T08:17:48.263Z,72.64
2019-04-28T08:18:48.192Z,72.36
2019-04-28T08:19:48.129Z,72.74
2019-04-28T08:20:48.049Z,71.98
2019-04-28T08:21:47.985Z,72.94
2019-04-28T08:22:47.909Z,73.32
2019-04-28T08:23:47.839Z,72.71
2019-04-28T08:24:47.787Z,73.57
2019-04-28T08:25:47.721Z,73.76
2019-04-28T08:26:47.654Z,74.05
2019-04-28T08:27:47.585Z,73.86
2019-04-28T08:28:47.504Z,74.05
2019-04-28T08:29:58.041Z,73.86
2019-04-28T08:30:47.385Z,73.76
2019-04-28T08:31:47.316Z,73.86
2019-04-28T08:32:47.235Z,73.57
2019-04-28T08:33:47.182Z,73.32
2019-04-28T08:34:47.113Z,72.45
2019-04-28T08:35:47.029Z,73.03
2019-04-28T08:36:46.972Z,72.90
2019-04-28T08:37:46.906Z,72.71
2019-04-28T08:38:46.829Z,73.57
2019-04-28T08:39:46.767Z,73.47
2019-04-28T08:40:46.701Z,73.66
2019-04-28T08:41:46.638Z,73.28
2019-04-28T08:42:46.569Z,73.76
2019-04-28T08:43:46.501Z,74.15
2019-04-28T08:44:46.417Z,73.76
2019-04-28T08:45:46.349Z,73.61
2019-04-28T08:46:46.294Z,73.32
2019-04-28T08:47:46.226Z,72.90
2019-04-28T08:48:46.149Z,73.38
2019-04-28T08:49:46.080Z,73.22
2019-04-28T08:50:46.011Z,72.94
2019-04-28T08:51:45.943Z,72.94
2019-04-28T08:52:45.890Z,72.84
2019-04-28T08:53:45.819Z,72.74
2019-04-28T08:54:45.750Z,72.45
2019-04-28T08:55:45.683Z,73.03
2019-04-28T08:56:45.603Z,72.84
2019-04-28T08:57:45.537Z,72.94
2019-04-28T08:58:45.471Z,72.64
2019-04-28T08:59:45.399Z,73.19
2019-04-28T09:00:45.346Z,73.86
2019-04-28T09:01:45.282Z,73.47
2019-04-28T09:02:45.197Z,73.09
2019-04-28T09:03:45.125Z,73.09
2019-04-28T09:04:45.073Z,73.70
2019-04-28T09:05:45.003Z,73.03
2019-04-28T09:06:44.935Z,73.03
2019-04-28T09:07:44.869Z,73.03
2019-04-28T09:08:44.781Z,72.94
2019-04-28T09:09:44.717Z,73.13
2019-04-28T09:10:44.664Z,73.13
2019-04-28T09:11:44.589Z,73.32
2019-04-28T09:12:44.509Z,73.09
2019-04-28T09:13:44.444Z,72.94
2019-04-28T09:14:44.375Z,72.64
2019-04-28T09:15:44.307Z,72.55
2019-04-28T09:16:44.250Z,72.17
2019-04-28T09:17:44.185Z,72.27
2019-04-28T09:18:44.103Z,72.27
2019-04-28T09:19:44.033Z,72.55
2019-04-28T09:20:43.984Z,72.55
2019-04-28T09:21:43.912Z,72.39
2019-04-28T09:22:43.840Z,72.39
2019-04-28T09:23:43.770Z,72.11
2019-04-28T09:24:43.695Z,72.36
2019-04-28T09:25:43.637Z,72.11
2019-04-28T09:26:43.553Z,72.30
2019-04-28T09:27:43.489Z,72.17
2019-04-28T09:28:43.434Z,72.84
2019-04-28T09:29:43.388Z,72.64
2019-04-28T09:30:43.305Z,72.45
2019-04-28T09:31:43.228Z,72.94
2019-04-28T09:32:43.147Z,72.49
2019-04-28T09:33:43.087Z,72.30
2019-04-28T09:34:43.026Z,72.49
2019-04-28T09:35:42.970Z,72.39
2019-04-28T09:36:42.879Z,72.63
2019-04-28T09:37:42.813Z,72.20
2019-04-28T09:38:42.742Z,72.30
2019-04-28T09:39:42.681Z,72.24
2019-04-28T09:40:42.621Z,71.86
2019-04-28T09:41:42.577Z,71.76
2019-04-28T09:42:42.469Z,71.37
2019-04-28T09:43:42.405Z,71.76
2019-04-28T09:44:42.349Z,71.37
2019-04-28T09:45:42.279Z,71.66
2019-04-28T09:46:42.211Z,71.57
2019-04-28T09:47:42.152Z,71.95
2019-04-28T09:48:42.067Z,72.20
2019-04-28T09:49:42.003Z,72.43
2019-04-28T09:50:41.939Z,72.49
2019-04-28T09:51:41.881Z,72.63
2019-04-28T09:52:41.796Z,72.33
2019-04-28T09:53:41.729Z,72.24
2019-04-28T09:54:41.665Z,72.24
2019-04-28T09:55:41.594Z,72.11
2019-04-28T09:56:41.543Z,72.78
2019-04-28T09:57:41.478Z,71.95
2019-04-28T09:58:41.400Z,71.76
2019-04-28T09:59:41.330Z,71.66
2019-04-28T10:00:41.257Z,71.47
2019-04-28T10:01:41.189Z,71.76
2019-04-28T10:02:41.127Z,72.05
2019-04-28T10:03:41.057Z,72.24
2019-04-28T10:04:42.063Z,71.76
2019-04-28T10:05:40.934Z,71.66
2019-04-28T10:06:40.852Z,71.95
2019-04-28T10:07:40.799Z,71.37
2019-04-28T10:08:40.727Z,71.09
2019-04-28T10:09:40.666Z,71.19
2019-04-28T10:10:40.594Z,71.70
2019-04-28T10:11:40.531Z,71.70
2019-04-28T10:12:40.449Z,70.93
2019-04-28T10:13:40.384Z,71.03
2019-04-28T10:14:40.313Z,70.64
2019-04-28T10:15:40.244Z,70.64
2019-04-28T10:16:40.186Z,70.74
2019-04-28T10:17:40.121Z,69.87
2019-04-28T10:18:40.057Z,70.55
2019-04-28T10:19:39.989Z,69.78
2019-04-28T10:20:39.917Z,70.36
2019-04-28T10:21:39.839Z,70.17
2019-04-28T10:22:39.784Z,69.49
2019-04-28T10:23:39.717Z,69.30
2019-04-28T10:24:39.639Z,69.30
2019-04-28T10:25:39.572Z,69.20
2019-04-28T10:26:39.501Z,69.49
2019-04-28T10:27:39.460Z,69.97
2019-04-28T10:28:39.380Z,70.55
2019-04-28T10:29:39.317Z,69.97
2019-04-28T10:30:39.251Z,69.59
2019-04-28T10:31:39.169Z,69.17
2019-04-28T10:32:39.105Z,69.49
2019-04-28T10:33:39.037Z,69.78
2019-04-28T10:34:38.969Z,69.30
2019-04-28T10:35:38.915Z,69.11
2019-04-28T10:36:38.849Z,69.11
2019-04-28T10:37:38.771Z,69.59
2019-04-28T10:38:38.699Z,69.24
2019-04-28T10:39:38.639Z,69.43
2019-04-28T10:40:38.577Z,69.14
2019-04-28T10:41:38.514Z,69.05
2019-04-28T10:42:38.447Z,68.85
2019-04-28T10:43:38.363Z,68.95
2019-04-28T10:44:38.296Z,68.76
2019-04-28T10:45:38.240Z,68.18
2019-04-28T10:46:38.176Z,68.57
2019-04-28T10:47:38.096Z,68.47
2019-04-28T10:48:38.030Z,68.95
2019-04-28T10:49:37.965Z,69.05
2019-04-28T10:50:37.895Z,67.90
2019-04-28T10:51:37.838Z,67.90
2019-04-28T10:52:37.781Z,68.37
2019-04-28T10:53:37.694Z,68.37
2019-04-28T10:54:37.625Z,68.37
2019-04-28T10:55:37.567Z,67.80
2019-04-28T10:56:37.501Z,68.18
2019-04-28T10:57:37.436Z,67.99
2019-04-28T10:58:37.369Z,67.99
2019-04-28T10:59:37.288Z,67.22
2019-04-28T11:00:37.218Z,67.90
2019-04-28T11:01:37.164Z,67.80
2019-04-28T11:02:37.086Z,67.61
2019-04-28T11:03:37.027Z,68.08
2019-04-28T11:04:36.968Z,67.90
2019-04-28T11:05:36.897Z,67.25
2019-04-28T11:06:36.853Z,67.51
2019-04-28T11:07:36.752Z,67.25
2019-04-28T11:08:36.706Z,66.68
2019-04-28T11:09:36.629Z,66.58
2019-04-28T11:10:36.563Z,66.77
2019-04-28T11:11:36.479Z,67.16
2019-04-28T11:12:36.416Z,66.00
2019-04-28T11:13:36.348Z,65.81
2019-04-28T11:14:36.281Z,65.91
2019-04-28T11:15:36.226Z,65.05
2019-04-28T11:16:36.159Z,65.23
2019-04-28T11:17:36.096Z,64.95
2019-04-28T11:18:36.028Z,65.23
2019-04-28T11:19:35.950Z,65.53
2019-04-28T11:20:35.879Z,65.14
2019-04-28T11:21:35.813Z,64.76
2019-04-28T11:22:35.765Z,64.76
2019-04-28T11:23:35.691Z,64.56
2019-04-28T11:24:35.632Z,64.85
2019-04-28T11:25:35.545Z,64.47
2019-04-28T11:26:35.544Z,64.66
2019-04-28T11:27:35.424Z,64.50
2019-04-28T11:28:37.801Z,64.76
2019-04-28T11:29:35.289Z,62.48
2019-04-28T11:30:35.223Z,62.93
2019-04-28T11:31:35.144Z,62.84
2019-04-28T11:32:35.076Z,62.64
2019-04-28T11:33:35.018Z,62.45
2019-04-28T11:34:34.943Z,62.26
2019-04-28T11:35:34.941Z,61.87
2019-04-28T11:36:34.825Z,60.75
2019-04-28T11:37:34.768Z,60.75
2019-04-28T11:38:34.691Z,59.79
2019-04-28T11:39:34.611Z,59.22
2019-04-28T11:40:34.543Z,58.92
2019-04-28T11:41:34.491Z,59.09
2019-04-28T11:42:34.422Z,58.73
2019-04-28T11:43:34.346Z,59.19
2019-04-28T11:44:34.275Z,59.41
2019-04-28T11:45:34.210Z,58.99
2019-04-28T11:46:34.145Z,58.61
2019-04-28T11:47:34.088Z,57.55
2019-04-28T11:48:34.025Z,57.00
2019-04-28T11:49:33.939Z,57.77
2019-04-28T11:50:33.898Z,58.45
2019-04-28T11:51:33.817Z,57.77
2019-04-28T11:52:33.754Z,58.15
2019-04-28T11:53:33.686Z,58.54
2019-04-28T11:54:33.613Z,58.25
2019-04-28T11:55:33.537Z,58.45
2019-04-28T11:56:41.249Z,58.35
2019-04-28T11:57:33.416Z,58.54
2019-04-28T11:58:33.349Z,59.12
2019-04-28T11:59:33.270Z,58.73
2019-04-28T12:00:33.204Z,59.02
2019-04-28T12:01:33.132Z,58.92
2019-04-28T12:02:33.071Z,57.29
2019-04-28T12:03:33.013Z,55.37
2019-04-28T12:04:32.941Z,54.89
2019-04-28T12:05:34.575Z,54.31
2019-04-28T12:06:32.812Z,54.89
2019-04-28T12:07:32.734Z,55.46
2019-04-28T12:08:32.666Z,54.79
2019-04-28T12:09:32.598Z,54.02
2019-04-28T12:10:32.534Z,54.12
2019-04-28T12:11:32.476Z,53.83
2019-04-28T12:12:32.414Z,54.02
2019-04-28T12:13:32.326Z,54.12
2019-04-28T12:14:32.263Z,55.08
2019-04-28T12:15:32.209Z,55.56
2019-04-28T12:16:32.140Z,55.94
2019-04-28T12:17:34.923Z,56.65
2019-04-28T12:18:32.001Z,57.22
2019-04-28T12:19:31.920Z,57.10
2019-04-28T12:20:31.858Z,57.00
2019-04-28T12:21:31.790Z,56.84
2019-04-28T12:22:31.750Z,56.16
2019-04-28T12:23:31.667Z,56.55
2019-04-28T12:24:31.597Z,56.55
2019-04-28T12:25:31.535Z,54.91
2019-04-28T12:26:31.464Z,54.72
2019-04-28T12:27:31.401Z,54.72
2019-04-28T12:28:31.320Z,55.01
2019-04-28T12:29:31.267Z,55.11
2019-04-28T12:30:31.203Z,54.43
2019-04-28T12:31:31.118Z,54.34
2019-04-28T12:32:31.052Z,54.34
2019-04-28T12:33:30.985Z,54.63
2019-04-28T12:34:30.918Z,54.53
2019-04-28T12:35:30.869Z,54.91
2019-04-28T12:36:30.801Z,54.72
2019-04-28T12:37:30.731Z,55.20
2019-04-28T12:38:30.660Z,54.91
2019-04-28T12:39:30.581Z,55.49
2019-04-28T12:40:30.510Z,54.82
2019-04-28T12:41:30.448Z,55.59
2019-04-28T12:42:30.380Z,55.59
2019-04-28T12:43:30.332Z,55.88
2019-04-28T12:44:30.251Z,55.49
2019-04-28T12:45:35.176Z,55.59
2019-04-28T12:46:30.112Z,55.20
2019-04-28T12:47:30.052Z,54.14
2019-04-28T12:48:32.603Z,54.14
2019-04-28T12:49:29.927Z,54.14
2019-04-28T12:50:29.873Z,54.05
2019-04-28T12:51:29.779Z,53.66